Hovedside
METAR-TAF:

METAR-TAF

Lufthavner :

Pärnu, Estland

Pärnu lufthavn

breddegrad: 58-25-09N, lengdegrad: 024-28-22E, høyde over havet: 14 m

Gjeldene værobservasjon

Denne rapporten ble laget for 7 timer og 50 minutter siden, klokken 12:50 UTC
Vind 16 kt fra Sørvest
Temperatur 5°C
Luftfuktighet 75%
Trykk 1012 hPa
Sikt 10 km eller mer
Overskyet i en høyde av 3700 ft

METAR: EEPU 261250Z 23016KT 9999 OVC037 05/01 Q1012

Tid: 23:40 (20:40 UTC)


TAF: fraværende

Værobservasjoner og værvarsel for over 4000 flyplasser (METAR- og TAF-rapporter).

Tilgjengelige stasjoner er representert av de røde og gule prikkene på kartet.

Hold musepekeren over prikken for å se navnet på stasjonen.

Klikk så for å se værobservasjoner og -varsler.

For å forandre kartet kan du klikke på den grønne knappen med svart kryss for å zoome inn, på den grønne knappen med strek for å zoome ut, eller på de grønne pilene for å se tilstøtende kart.


METAR-TAF: